Time,TemperatureF,DewpointF,PressureIn,WindDirection,WindDirectionDegrees,WindSpeedMPH,WindSpeedGustMPH,Humidity,HourlyPrecipIn,Conditions,Clouds,dailyrainin,SoftwareType,DateUTC
2013-10-24 00:01:00,44.5,37.7,29.66,WNW,292,0.0,0.0,77,0.00,,,0.00,Wunderground PWS Mod,2013-10-24 04:01:00,
2013-10-24 00:03:00,44.5,37.7,29.66,WNW,292,0.0,0.0,77,0.00,,,0.00,Wunderground PWS Mod,2013-10-24 04:03:00,
2013-10-24 00:04:00,44.6,37.8,29.66,WNW,292,0.0,0.0,77,0.00,,,0.00,Wunderground PWS Mod,2013-10-24 04:04:00,
2013-10-24 00:08:00,44.5,37.7,29.66,WNW,295,0.0,3.0,77,0.00,,,0.00,Wunderground PWS Mod,2013-10-24 04:08:00,
2013-10-24 00:09:00,44.5,37.7,29.66,WNW,295,0.0,3.0,77,0.00,,,0.00,Wunderground PWS Mod,2013-10-24 04:09:00,
2013-10-24 00:11:00,44.5,37.7,29.66,WNW,295,0.0,3.0,77,0.00,,,0.00,Wunderground PWS Mod,2013-10-24 04:11:00,
2013-10-24 00:13:00,44.1,37.0,29.66,NNE,23,0.0,5.0,76,0.00,,,0.00,Wunderground PWS Mod,2013-10-24 04:13:00,
2013-10-24 00:17:00,44.5,37.7,29.66,NW,316,0.0,3.0,77,0.00,,,0.00,Wunderground PWS Mod,2013-10-24 04:17:00,
2013-10-24 00:22:00,44.4,37.3,29.66,NW,313,0.0,3.0,76,0.00,,,0.00,Wunderground PWS Mod,2013-10-24 04:22:00,
2013-10-24 00:28:00,44.3,37.5,29.66,WNW,303,0.0,3.0,77,0.00,,,0.00,Wunderground PWS Mod,2013-10-24 04:28:00,
2013-10-24 00:33:00,44.1,37.0,29.66,NNE,22,0.0,3.0,76,0.00,,,0.00,Wunderground PWS Mod,2013-10-24 04:33:00,
2013-10-24 00:39:00,44.1,37.0,29.66,NW,317,0.0,3.0,76,0.00,,,0.00,Wunderground PWS Mod,2013-10-24 04:39:00,
2013-10-24 00:44:00,44.0,37.3,29.66,NNW,331,0.0,3.0,77,0.00,,,0.00,Wunderground PWS Mod,2013-10-24 04:44:00,
2013-10-24 00:50:00,43.7,37.0,29.66,NNW,331,0.0,3.0,77,0.00,,,0.00,Wunderground PWS Mod,2013-10-24 04:50:00,
2013-10-24 00:55:00,43.6,37.2,29.66,NNW,327,0.0,3.0,78,0.00,,,0.00,Wunderground PWS Mod,2013-10-24 04:55:00,
2013-10-24 01:01:00,43.4,37.0,29.67,NW,324,0.0,3.0,78,0.00,,,0.00,Wunderground PWS Mod,2013-10-24 05:01:00,
2013-10-24 01:06:00,43.3,36.9,29.67,NNW,342,0.0,3.0,78,0.00,,,0.00,Wunderground PWS Mod,2013-10-24 05:06:00,
2013-10-24 01:11:00,43.2,36.8,29.67,NNW,336,0.0,3.0,78,0.00,,,0.00,Wunderground PWS Mod,2013-10-24 05:11:00,
2013-10-24 01:16:00,43.1,37.0,29.66,NW,314,0.0,3.0,79,0.00,,,0.00,Wunderground PWS Mod,2013-10-24 05:16:00,
2013-10-24 01:22:00,43.0,36.9,29.66,NW,314,0.0,3.0,79,0.00,,,0.00,Wunderground PWS Mod,2013-10-24 05:22:00,
2013-10-24 01:28:00,42.9,36.8,29.67,NNW,343,0.0,3.0,79,0.00,,,0.00,Wunderground PWS Mod,2013-10-24 05:28:00,
2013-10-24 01:33:00,42.9,36.8,29.67,NNW,340,0.0,3.0,79,0.00,,,0.00,Wunderground PWS Mod,2013-10-24 05:33:00,
2013-10-24 01:38:00,42.8,36.7,29.67,NNW,342,0.0,3.0,79,0.00,,,0.00,Wunderground PWS Mod,2013-10-24 05:38:00,
2013-10-24 01:44:00,42.7,36.6,29.67,NNW,342,0.0,3.0,79,0.00,,,0.00,Wunderground PWS Mod,2013-10-24 05:44:00,
2013-10-24 01:50:00,42.6,36.9,29.67,WNW,302,0.0,3.0,80,0.00,,,0.00,Wunderground PWS Mod,2013-10-24 05:50:00,
2013-10-24 01:55:00,42.5,36.8,29.68,WNW,302,0.0,3.0,80,0.00,,,0.00,Wunderground PWS Mod,2013-10-24 05:55:00,
2013-10-24 02:00:00,42.5,36.8,29.68,WNW,293,0.0,3.0,80,0.00,,,0.00,Wunderground PWS Mod,2013-10-24 06:00:00,
2013-10-24 02:06:00,42.5,36.8,29.68,WNW,293,0.0,3.0,80,0.00,,,0.00,Wunderground PWS Mod,2013-10-24 06:06:00,
2013-10-24 02:11:00,42.4,37.0,29.68,WNW,293,0.0,3.0,81,0.00,,,0.00,Wunderground PWS Mod,2013-10-24 06:11:00,
2013-10-24 02:17:00,42.2,36.8,29.68,WNW,293,0.0,3.0,81,0.00,,,0.00,Wunderground PWS Mod,2013-10-24 06:17:00,
2013-10-24 02:23:00,42.1,36.7,29.68,WNW,293,0.0,3.0,81,0.00,,,0.00,Wunderground PWS Mod,2013-10-24 06:23:00,
2013-10-24 02:29:00,42.0,36.6,29.68,WNW,293,0.0,3.0,81,0.00,,,0.00,Wunderground PWS Mod,2013-10-24 06:29:00,
2013-10-24 02:34:00,41.9,36.8,29.68,WNW,293,0.0,3.0,82,0.00,,,0.00,Wunderground PWS Mod,2013-10-24 06:34:00,
2013-10-24 02:40:00,41.8,36.7,29.68,WNW,293,0.0,3.0,82,0.00,,,0.00,Wunderground PWS Mod,2013-10-24 06:40:00,
2013-10-24 02:45:00,41.6,36.8,29.69,WNW,293,0.0,3.0,83,0.00,,,0.00,Wunderground PWS Mod,2013-10-24 06:45:00,
2013-10-24 02:51:00,41.5,36.7,29.68,WNW,293,0.0,3.0,83,0.00,,,0.00,Wunderground PWS Mod,2013-10-24 06:51:00,
2013-10-24 02:57:00,41.2,36.4,29.69,WNW,293,0.0,3.0,83,0.00,,,0.00,Wunderground PWS Mod,2013-10-24 06:57:00,
2013-10-24 03:02:00,41.1,36.6,29.69,NNW,327,0.0,3.0,84,0.00,,,0.00,Wunderground PWS Mod,2013-10-24 07:02:00,
2013-10-24 03:07:00,40.9,36.4,29.69,NNW,327,0.0,3.0,84,0.00,,,0.00,Wunderground PWS Mod,2013-10-24 07:07:00,
2013-10-24 03:12:00,40.8,36.3,29.69,NNW,327,0.0,3.0,84,0.00,,,0.00,Wunderground PWS Mod,2013-10-24 07:12:00,
2013-10-24 03:18:00,40.7,36.5,29.69,NW,325,0.0,3.0,85,0.00,,,0.00,Wunderground PWS Mod,2013-10-24 07:18:00,
2013-10-24 03:24:00,40.7,36.5,29.69,WNW,286,0.0,3.0,85,0.00,,,0.00,Wunderground PWS Mod,2013-10-24 07:24:00,
2013-10-24 03:30:00,40.7,36.5,29.69,WNW,289,0.0,3.0,85,0.00,,,0.00,Wunderground PWS Mod,2013-10-24 07:30:00,
2013-10-24 03:35:00,40.7,36.5,29.69,WNW,293,0.0,3.0,85,0.00,,,0.00,Wunderground PWS Mod,2013-10-24 07:35:00,
2013-10-24 03:41:00,40.6,36.4,29.69,WNW,293,0.0,3.0,85,0.00,,,0.00,Wunderground PWS Mod,2013-10-24 07:41:00,
2013-10-24 03:46:00,40.6,36.4,29.69,West,280,0.0,3.0,85,0.00,,,0.00,Wunderground PWS Mod,2013-10-24 07:46:00,
2013-10-24 03:51:00,40.6,36.4,29.69,North,351,0.0,3.0,85,0.00,,,0.00,Wunderground PWS Mod,2013-10-24 07:51:00,
2013-10-24 03:57:00,40.6,36.4,29.70,NW,319,0.0,3.0,85,0.00,,,0.00,Wunderground PWS Mod,2013-10-24 07:57:00,
2013-10-24 04:02:00,40.7,36.5,29.70,NNW,340,0.0,3.0,85,0.00,,,0.00,Wunderground PWS Mod,2013-10-24 08:02:00,
2013-10-24 04:08:00,40.7,36.5,29.70,WNW,292,0.0,3.0,85,0.00,,,0.00,Wunderground PWS Mod,2013-10-24 08:08:00,
2013-10-24 04:14:00,40.6,36.4,29.71,WNW,292,0.0,3.0,85,0.00,,,0.00,Wunderground PWS Mod,2013-10-24 08:14:00,
2013-10-24 04:20:00,40.5,36.3,29.71,North,5,0.0,3.0,85,0.00,,,0.00,Wunderground PWS Mod,2013-10-24 08:20:00,
2013-10-24 04:25:00,40.4,36.2,29.71,NW,319,0.0,3.0,85,0.00,,,0.00,Wunderground PWS Mod,2013-10-24 08:25:00,
2013-10-24 04:30:00,40.4,36.5,29.71,North,349,0.0,3.0,86,0.00,,,0.00,Wunderground PWS Mod,2013-10-24 08:30:00,
2013-10-24 04:35:00,40.4,36.2,29.71,North,5,0.0,3.0,85,0.00,,,0.00,Wunderground PWS Mod,2013-10-24 08:35:00,
2013-10-24 04:41:00,40.4,36.2,29.72,NNW,347,0.0,3.0,85,0.00,,,0.00,Wunderground PWS Mod,2013-10-24 08:41:00,
2013-10-24 04:46:00,40.4,36.2,29.72,NNW,347,1.0,3.0,85,0.00,,,0.00,Wunderground PWS Mod,2013-10-24 08:46:00,
2013-10-24 04:52:00,40.5,36.0,29.72,NNW,328,1.0,3.0,84,0.00,,,0.00,Wunderground PWS Mod,2013-10-24 08:52:00,
2013-10-24 04:57:00,40.4,35.9,29.73,NW,313,1.0,3.0,84,0.00,,,0.00,Wunderground PWS Mod,2013-10-24 08:57:00,
2013-10-24 05:02:00,40.3,35.8,29.73,NW,319,0.0,3.0,84,0.00,,,0.00,Wunderground PWS Mod,2013-10-24 09:02:00,
2013-10-24 05:08:00,40.1,35.7,29.73,NW,325,0.0,3.0,84,0.00,,,0.00,Wunderground PWS Mod,2013-10-24 09:08:00,
2013-10-24 05:14:00,39.9,35.8,29.74,NW,323,0.0,3.0,85,0.00,,,0.00,Wunderground PWS Mod,2013-10-24 09:14:00,
2013-10-24 05:19:00,39.8,35.7,29.74,NW,317,0.0,3.0,85,0.00,,,0.00,Wunderground PWS Mod,2013-10-24 09:19:00,
2013-10-24 05:24:00,39.8,35.7,29.74,NW,317,0.0,3.0,85,0.00,,,0.00,Wunderground PWS Mod,2013-10-24 09:24:00,
2013-10-24 05:30:00,39.7,35.3,29.74,North,350,0.0,3.0,84,0.00,,,0.00,Wunderground PWS Mod,2013-10-24 09:30:00,
2013-10-24 05:35:00,39.6,35.2,29.75,NNW,340,0.0,3.0,84,0.00,,,0.00,Wunderground PWS Mod,2013-10-24 09:35:00,
2013-10-24 05:41:00,39.5,35.1,29.75,NW,306,0.0,3.0,84,0.00,,,0.00,Wunderground PWS Mod,2013-10-24 09:41:00,
2013-10-24 05:46:00,39.5,35.1,29.75,West,265,0.0,3.0,84,0.00,,,0.00,Wunderground PWS Mod,2013-10-24 09:46:00,
2013-10-24 05:51:00,39.4,35.0,29.75,NNE,14,0.0,3.0,84,0.00,,,0.00,Wunderground PWS Mod,2013-10-24 09:51:00,
2013-10-24 05:56:00,39.4,35.0,29.75,NNW,334,1.0,3.0,84,0.00,,,0.00,Wunderground PWS Mod,2013-10-24 09:56:00,
2013-10-24 06:02:00,39.4,35.0,29.75,NNW,335,1.0,3.0,84,0.00,,,0.00,Wunderground PWS Mod,2013-10-24 10:02:00,
2013-10-24 06:07:00,39.4,35.0,29.75,NNW,335,0.0,3.0,84,0.00,,,0.00,Wunderground PWS Mod,2013-10-24 10:07:00,
2013-10-24 06:12:00,39.3,34.9,29.75,North,355,0.0,3.0,84,0.00,,,0.00,Wunderground PWS Mod,2013-10-24 10:12:00,
2013-10-24 06:18:00,39.3,34.9,29.76,NNW,334,0.0,3.0,84,0.00,,,0.00,Wunderground PWS Mod,2013-10-24 10:18:00,
2013-10-24 06:24:00,39.2,34.8,29.76,NW,309,0.0,3.0,84,0.00,,,0.00,Wunderground PWS Mod,2013-10-24 10:24:00,
2013-10-24 06:29:00,39.2,34.5,29.76,NW,319,0.0,3.0,83,0.00,,,0.00,Wunderground PWS Mod,2013-10-24 10:29:00,
2013-10-24 06:34:00,39.2,34.5,29.76,NW,322,0.0,3.0,83,0.00,,,0.00,Wunderground PWS Mod,2013-10-24 10:34:00,
2013-10-24 06:40:00,39.1,34.4,29.76,WNW,300,0.0,3.0,83,0.00,,,0.00,Wunderground PWS Mod,2013-10-24 10:40:00,
2013-10-24 06:45:00,39.0,34.6,29.76,NNW,347,0.0,3.0,84,0.00,,,0.00,Wunderground PWS Mod,2013-10-24 10:45:00,
2013-10-24 06:51:00,38.9,34.5,29.77,North,351,0.0,3.0,84,0.00,,,0.00,Wunderground PWS Mod,2013-10-24 10:51:00,
2013-10-24 06:56:00,38.8,34.4,29.77,NNE,18,0.0,3.0,84,0.00,,,0.00,Wunderground PWS Mod,2013-10-24 10:56:00,
2013-10-24 07:01:00,38.7,34.3,29.78,North,355,0.0,3.0,84,0.00,,,0.00,Wunderground PWS Mod,2013-10-24 11:01:00,
2013-10-24 07:07:00,38.7,34.3,29.78,NW,318,0.0,3.0,84,0.00,,,0.00,Wunderground PWS Mod,2013-10-24 11:07:00,
2013-10-24 07:12:00,38.6,34.2,29.78,NW,319,0.0,3.0,84,0.00,,,0.00,Wunderground PWS Mod,2013-10-24 11:12:00,
2013-10-24 07:18:00,38.5,34.1,29.79,NW,315,0.0,3.0,84,0.00,,,0.00,Wunderground PWS Mod,2013-10-24 11:18:00,
2013-10-24 07:24:00,38.5,34.1,29.79,NW,315,0.0,3.0,84,0.00,,,0.00,Wunderground PWS Mod,2013-10-24 11:24:00,
2013-10-24 07:30:00,38.5,34.1,29.79,NW,315,0.0,3.0,84,0.00,,,0.00,Wunderground PWS Mod,2013-10-24 11:30:00,
2013-10-24 07:35:00,38.6,34.2,29.80,NW,323,0.0,3.0,84,0.00,,,0.00,Wunderground PWS Mod,2013-10-24 11:35:00,
2013-10-24 07:41:00,38.7,34.3,29.80,NW,323,0.0,3.0,84,0.00,,,0.00,Wunderground PWS Mod,2013-10-24 11:41:00,
2013-10-24 07:46:00,38.7,34.3,29.80,NW,323,0.0,3.0,84,0.00,,,0.00,Wunderground PWS Mod,2013-10-24 11:46:00,
2013-10-24 07:51:00,38.7,34.3,29.80,NW,317,0.0,3.0,84,0.00,,,0.00,Wunderground PWS Mod,2013-10-24 11:51:00,
2013-10-24 07:56:00,38.7,34.3,29.80,NW,311,0.0,3.0,84,0.00,,,0.00,Wunderground PWS Mod,2013-10-24 11:56:00,
2013-10-24 08:02:00,38.7,34.3,29.81,WNW,303,0.0,3.0,84,0.00,,,0.00,Wunderground PWS Mod,2013-10-24 12:02:00,
2013-10-24 08:07:00,38.7,34.3,29.81,WNW,285,0.0,0.0,84,0.00,,,0.00,Wunderground PWS Mod,2013-10-24 12:07:00,
2013-10-24 08:12:00,38.8,34.4,29.82,WNW,285,0.0,0.0,84,0.00,,,0.00,Wunderground PWS Mod,2013-10-24 12:12:00,
2013-10-24 08:14:00,38.7,34.3,29.81,N/A,-737280,0.0,0.0,84,0.00,,,0.00,Wunderground PWS Mod,2013-10-24 12:14:00,
2013-10-24 08:18:00,38.9,34.5,29.82,WNW,297,0.0,0.0,84,0.00,,,0.00,Wunderground PWS Mod,2013-10-24 12:18:00,
2013-10-24 08:24:00,39.2,34.8,29.82,WNW,284,0.0,0.0,84,0.00,,,0.00,Wunderground PWS Mod,2013-10-24 12:24:00,
2013-10-24 08:30:00,39.4,34.7,29.83,NW,304,0.0,0.0,83,0.00,,,0.00,Wunderground PWS Mod,2013-10-24 12:30:00,
2013-10-24 08:35:00,39.7,35.0,29.83,WNW,296,0.0,0.0,83,0.00,,,0.00,Wunderground PWS Mod,2013-10-24 12:35:00,
2013-10-24 08:40:00,39.9,35.2,29.83,NW,308,0.0,0.0,83,0.00,,,0.00,Wunderground PWS Mod,2013-10-24 12:40:00,
2013-10-24 08:45:00,40.2,35.4,29.83,West,277,0.0,0.0,83,0.00,,,0.00,Wunderground PWS Mod,2013-10-24 12:45:00,
2013-10-24 08:51:00,40.6,35.5,29.83,NW,310,0.0,0.0,82,0.00,,,0.00,Wunderground PWS Mod,2013-10-24 12:51:00,
2013-10-24 08:56:00,41.0,35.6,29.83,WNW,296,0.0,2.0,81,0.00,,,0.00,Wunderground PWS Mod,2013-10-24 12:56:00,
2013-10-24 09:02:00,41.3,35.9,29.83,West,263,0.0,2.0,81,0.00,,,0.00,Wunderground PWS Mod,2013-10-24 13:02:00,
2013-10-24 09:07:00,41.6,35.2,29.83,NE,47,1.0,1.0,78,0.00,,,0.00,Wunderground PWS Mod,2013-10-24 13:07:00,
2013-10-24 09:12:00,41.9,35.5,29.83,WSW,244,1.0,1.0,78,0.00,,,0.00,Wunderground PWS Mod,2013-10-24 13:12:00,
2013-10-24 09:17:00,42.1,35.7,29.83,NW,307,0.0,0.0,78,0.00,,,0.00,Wunderground PWS Mod,2013-10-24 13:17:00,
2013-10-24 09:22:00,42.4,36.0,29.83,NNW,330,0.0,0.0,78,0.00,,,0.00,Wunderground PWS Mod,2013-10-24 13:22:00,
2013-10-24 09:28:00,42.6,35.9,29.83,West,266,0.0,0.0,77,0.00,,,0.00,Wunderground PWS Mod,2013-10-24 13:28:00,
2013-10-24 09:34:00,43.0,36.3,29.83,WNW,290,0.0,0.0,77,0.00,,,0.00,Wunderground PWS Mod,2013-10-24 13:34:00,
2013-10-24 09:39:00,43.3,35.6,29.83,West,264,1.0,1.0,74,0.00,,,0.00,Wunderground PWS Mod,2013-10-24 13:39:00,
2013-10-24 09:45:00,43.6,35.5,29.83,West,262,1.0,1.0,73,0.00,,,0.00,Wunderground PWS Mod,2013-10-24 13:45:00,
2013-10-24 09:51:00,43.9,35.8,29.83,WNW,291,0.0,0.0,73,0.00,,,0.00,Wunderground PWS Mod,2013-10-24 13:51:00,
2013-10-24 09:56:00,44.3,35.1,29.84,WNW,298,0.0,0.0,70,0.00,,,0.00,Wunderground PWS Mod,2013-10-24 13:56:00,
2013-10-24 10:01:00,44.7,34.8,29.84,WNW,298,1.0,1.0,68,0.00,,,0.00,Wunderground PWS Mod,2013-10-24 14:01:00,
2013-10-24 10:06:00,45.1,34.4,29.84,NNW,346,1.0,3.0,66,0.00,,,0.00,Wunderground PWS Mod,2013-10-24 14:06:00,
2013-10-24 10:12:00,45.4,33.5,29.84,SW,217,2.0,2.0,63,0.00,,,0.00,Wunderground PWS Mod,2013-10-24 14:12:00,
2013-10-24 10:17:00,45.6,33.7,29.84,East,93,2.0,2.0,63,0.00,,,0.00,Wunderground PWS Mod,2013-10-24 14:17:00,
2013-10-24 10:22:00,45.7,33.4,29.84,ENE,68,2.0,2.0,62,0.00,,,0.00,Wunderground PWS Mod,2013-10-24 14:22:00,
2013-10-24 10:27:00,45.9,33.6,29.84,West,271,1.0,2.0,62,0.00,,,0.00,Wunderground PWS Mod,2013-10-24 14:27:00,
2013-10-24 10:33:00,46.3,34.0,29.84,West,259,1.0,2.0,62,0.00,,,0.00,Wunderground PWS Mod,2013-10-24 14:33:00,
2013-10-24 10:38:00,46.5,32.5,29.84,NE,55,1.0,1.0,58,0.00,,,0.00,Wunderground PWS Mod,2013-10-24 14:38:00,
2013-10-24 10:43:00,46.7,32.7,29.84,SSE,148,2.0,2.0,58,0.00,,,0.00,Wunderground PWS Mod,2013-10-24 14:43:00,
2013-10-24 10:48:00,46.8,32.4,29.83,SW,232,1.0,2.0,57,0.00,,,0.00,Wunderground PWS Mod,2013-10-24 14:48:00,
2013-10-24 10:54:00,46.7,30.5,29.83,North,360,2.0,4.0,53,0.00,,,0.00,Wunderground PWS Mod,2013-10-24 14:54:00,
2013-10-24 11:00:00,46.9,30.2,29.83,West,269,3.0,3.0,52,0.00,,,0.00,Wunderground PWS Mod,2013-10-24 15:00:00,
2013-10-24 11:05:00,47.0,30.3,29.83,West,271,3.0,3.0,52,0.00,,,0.00,Wunderground PWS Mod,2013-10-24 15:05:00,
2013-10-24 11:10:00,47.4,30.2,29.83,NNE,14,3.0,5.0,51,0.00,,,0.00,Wunderground PWS Mod,2013-10-24 15:10:00,
2013-10-24 11:15:00,47.5,29.8,29.83,West,270,3.0,3.0,50,0.00,,,0.00,Wunderground PWS Mod,2013-10-24 15:15:00,
2013-10-24 11:20:00,47.8,30.0,29.83,West,266,2.0,2.0,50,0.00,,,0.00,Wunderground PWS Mod,2013-10-24 15:20:00,
2013-10-24 11:25:00,48.1,30.8,29.83,WNW,294,2.0,4.0,51,0.00,,,0.00,Wunderground PWS Mod,2013-10-24 15:25:00,
2013-10-24 11:31:00,48.3,30.5,29.83,NE,48,2.0,2.0,50,0.00,,,0.00,Wunderground PWS Mod,2013-10-24 15:31:00,
2013-10-24 11:36:00,48.0,30.7,29.83,WSW,245,2.0,2.0,51,0.00,,,0.00,Wunderground PWS Mod,2013-10-24 15:36:00,
2013-10-24 11:41:00,48.1,31.3,29.83,West,259,2.0,2.0,52,0.00,,,0.00,Wunderground PWS Mod,2013-10-24 15:41:00,
2013-10-24 11:46:00,48.2,30.4,29.83,ENE,65,2.0,5.0,50,0.00,,,0.00,Wunderground PWS Mod,2013-10-24 15:46:00,
2013-10-24 11:52:00,48.3,30.5,29.82,West,263,2.0,2.0,50,0.00,,,0.00,Wunderground PWS Mod,2013-10-24 15:52:00,
2013-10-24 11:57:00,48.3,30.0,29.82,NNW,342,2.0,2.0,49,0.00,,,0.00,Wunderground PWS Mod,2013-10-24 15:57:00,
2013-10-24 12:02:00,48.5,29.7,29.82,WNW,294,2.0,3.0,48,0.00,,,0.00,Wunderground PWS Mod,2013-10-24 16:02:00,
2013-10-24 12:08:00,49.0,30.7,29.82,North,355,2.0,12.0,49,0.00,,,0.00,Wunderground PWS Mod,2013-10-24 16:08:00,
2013-10-24 12:13:00,49.4,31.0,29.81,NNW,329,1.0,12.0,49,0.00,,,0.00,Wunderground PWS Mod,2013-10-24 16:13:00,
2013-10-24 12:14:00,48.5,29.7,29.82,West,270,2.0,12.0,48,0.00,,,0.00,Wunderground PWS Mod,2013-10-24 16:14:00,
2013-10-24 12:18:00,49.8,31.4,29.81,SSW,206,1.0,12.0,49,0.00,,,0.00,Wunderground PWS Mod,2013-10-24 16:18:00,
2013-10-24 12:24:00,50.1,30.6,29.81,West,281,2.0,12.0,47,0.00,,,0.00,Wunderground PWS Mod,2013-10-24 16:24:00,
2013-10-24 12:29:00,50.2,30.7,29.81,NE,46,2.0,12.0,47,0.00,,,0.00,Wunderground PWS Mod,2013-10-24 16:29:00,
2013-10-24 12:34:00,50.1,29.0,29.81,West,271,2.0,12.0,44,0.00,,,0.00,Wunderground PWS Mod,2013-10-24 16:34:00,
2013-10-24 12:40:00,50.2,29.1,29.81,NW,325,2.0,12.0,44,0.00,,,0.00,Wunderground PWS Mod,2013-10-24 16:40:00,
2013-10-24 12:45:00,50.4,29.3,29.80,WNW,298,2.0,12.0,44,0.00,,,0.00,Wunderground PWS Mod,2013-10-24 16:45:00,
2013-10-24 12:51:00,50.7,29.6,29.80,NW,311,2.0,12.0,44,0.00,,,0.00,Wunderground PWS Mod,2013-10-24 16:51:00,
2013-10-24 12:56:00,51.1,29.9,29.80,NNE,31,2.0,12.0,44,0.00,,,0.00,Wunderground PWS Mod,2013-10-24 16:56:00,
2013-10-24 13:01:00,51.4,29.1,29.80,NNW,333,2.0,12.0,42,0.00,,,0.00,Wunderground PWS Mod,2013-10-24 17:01:00,
2013-10-24 13:06:00,51.2,28.9,29.80,NE,35,2.0,12.0,42,0.00,,,0.00,Wunderground PWS Mod,2013-10-24 17:06:00,
2013-10-24 13:11:00,51.2,28.3,29.80,SW,226,2.0,12.0,41,0.00,,,0.00,Wunderground PWS Mod,2013-10-24 17:11:00,
2013-10-24 13:17:00,51.4,29.1,29.79,NNE,22,2.0,12.0,42,0.00,,,0.00,Wunderground PWS Mod,2013-10-24 17:17:00,
2013-10-24 13:22:00,51.3,29.0,29.79,ENE,59,2.0,12.0,42,0.00,,,0.00,Wunderground PWS Mod,2013-10-24 17:22:00,
2013-10-24 13:27:00,51.1,28.8,29.79,NNE,19,2.0,12.0,42,0.00,,,0.00,Wunderground PWS Mod,2013-10-24 17:27:00,
2013-10-24 13:32:00,51.3,29.5,29.79,WNW,282,2.0,12.0,43,0.00,,,0.00,Wunderground PWS Mod,2013-10-24 17:32:00,
2013-10-24 13:38:00,51.9,29.5,29.79,NW,308,2.0,12.0,42,0.00,,,0.00,Wunderground PWS Mod,2013-10-24 17:38:00,
2013-10-24 13:44:00,52.4,28.8,29.79,WNW,284,1.0,12.0,40,0.00,,,0.00,Wunderground PWS Mod,2013-10-24 17:44:00,
2013-10-24 13:49:00,52.4,28.8,29.79,West,264,2.0,12.0,40,0.00,,,0.00,Wunderground PWS Mod,2013-10-24 17:49:00,
2013-10-24 13:55:00,52.4,27.5,29.79,WSW,243,3.0,12.0,38,0.00,,,0.00,Wunderground PWS Mod,2013-10-24 17:55:00,
2013-10-24 14:01:00,52.2,28.6,29.79,WSW,253,2.0,12.0,40,0.00,,,0.00,Wunderground PWS Mod,2013-10-24 18:01:00,
2013-10-24 14:06:00,52.3,28.7,29.79,West,265,1.0,12.0,40,0.00,,,0.00,Wunderground PWS Mod,2013-10-24 18:06:00,
2013-10-24 14:12:00,52.7,28.4,29.79,WNW,285,1.0,12.0,39,0.00,,,0.00,Wunderground PWS Mod,2013-10-24 18:12:00,
2013-10-24 14:17:00,53.0,28.7,29.79,NW,312,2.0,12.0,39,0.00,,,0.00,Wunderground PWS Mod,2013-10-24 18:17:00,
2013-10-24 14:23:00,52.3,28.1,29.79,SSW,193,3.0,12.0,39,0.00,,,0.00,Wunderground PWS Mod,2013-10-24 18:23:00,
2013-10-24 14:28:00,51.5,27.3,29.80,West,273,2.0,12.0,39,0.00,,,0.00,Wunderground PWS Mod,2013-10-24 18:28:00,
2013-10-24 14:34:00,50.4,27.6,29.79,West,269,2.0,12.0,41,0.00,,,0.00,Wunderground PWS Mod,2013-10-24 18:34:00,
2013-10-24 14:40:00,50.1,28.4,29.79,West,274,1.0,12.0,43,0.00,,,0.00,Wunderground PWS Mod,2013-10-24 18:40:00,
2013-10-24 14:46:00,50.1,27.9,29.79,SSW,203,2.0,12.0,42,0.00,,,0.00,Wunderground PWS Mod,2013-10-24 18:46:00,
2013-10-24 14:51:00,50.1,27.9,29.79,NW,304,2.0,12.0,42,0.00,,,0.00,Wunderground PWS Mod,2013-10-24 18:51:00,
2013-10-24 14:57:00,50.5,28.2,29.79,WNW,289,2.0,12.0,42,0.00,,,0.00,Wunderground PWS Mod,2013-10-24 18:57:00,
2013-10-24 15:02:00,51.4,29.6,29.79,West,275,2.0,12.0,43,0.00,,,0.00,Wunderground PWS Mod,2013-10-24 19:02:00,
2013-10-24 15:07:00,52.1,29.1,29.79,WSW,245,2.0,12.0,41,0.00,,,0.00,Wunderground PWS Mod,2013-10-24 19:07:00,
2013-10-24 15:13:00,52.2,29.2,29.79,NNW,347,3.0,12.0,41,0.00,,,0.00,Wunderground PWS Mod,2013-10-24 19:13:00,
2013-10-24 15:18:00,52.1,29.1,29.79,NW,313,2.0,12.0,41,0.00,,,0.00,Wunderground PWS Mod,2013-10-24 19:18:00,
2013-10-24 15:23:00,52.1,28.5,29.79,West,271,2.0,12.0,40,0.00,,,0.00,Wunderground PWS Mod,2013-10-24 19:23:00,
2013-10-24 15:29:00,51.7,29.9,29.79,NW,310,2.0,12.0,43,0.00,,,0.00,Wunderground PWS Mod,2013-10-24 19:29:00,
2013-10-24 15:34:00,51.3,29.0,29.80,NW,304,2.0,12.0,42,0.00,,,0.00,Wunderground PWS Mod,2013-10-24 19:34:00,
2013-10-24 15:40:00,51.0,29.8,29.80,NW,318,1.0,12.0,44,0.00,,,0.00,Wunderground PWS Mod,2013-10-24 19:40:00,
2013-10-24 15:45:00,50.7,29.0,29.80,West,275,1.0,12.0,43,0.00,,,0.00,Wunderground PWS Mod,2013-10-24 19:45:00,
2013-10-24 15:50:00,50.8,28.5,29.80,North,5,1.0,12.0,42,0.00,,,0.00,Wunderground PWS Mod,2013-10-24 19:50:00,
2013-10-24 15:55:00,50.7,29.0,29.80,WNW,301,1.0,12.0,43,0.00,,,0.00,Wunderground PWS Mod,2013-10-24 19:55:00,
2013-10-24 16:01:00,50.8,29.6,29.80,WSW,250,1.0,12.0,44,0.00,,,0.00,Wunderground PWS Mod,2013-10-24 20:01:00,
2013-10-24 16:06:00,50.9,29.2,29.80,West,265,1.0,8.0,43,0.00,,,0.00,Wunderground PWS Mod,2013-10-24 20:06:00,
2013-10-24 16:12:00,51.1,29.9,29.80,NNW,340,1.0,8.0,44,0.00,,,0.00,Wunderground PWS Mod,2013-10-24 20:12:00,
2013-10-24 16:14:00,50.8,29.6,29.81,West,270,1.0,8.0,44,0.00,,,0.00,Wunderground PWS Mod,2013-10-24 20:14:00,
2013-10-24 16:17:00,51.2,28.9,29.80,West,278,1.0,8.0,42,0.00,,,0.00,Wunderground PWS Mod,2013-10-24 20:17:00,
2013-10-24 16:22:00,51.3,29.5,29.80,West,270,1.0,8.0,43,0.00,,,0.00,Wunderground PWS Mod,2013-10-24 20:22:00,
2013-10-24 16:27:00,51.4,29.1,29.80,WNW,284,1.0,8.0,42,0.00,,,0.00,Wunderground PWS Mod,2013-10-24 20:27:00,
2013-10-24 16:32:00,51.6,29.2,29.80,NW,311,1.0,8.0,42,0.00,,,0.00,Wunderground PWS Mod,2013-10-24 20:32:00,
2013-10-24 16:38:00,51.6,29.2,29.80,NNW,330,1.0,8.0,42,0.00,,,0.00,Wunderground PWS Mod,2013-10-24 20:38:00,
2013-10-24 16:43:00,51.6,29.2,29.80,NNE,24,0.0,8.0,42,0.00,,,0.00,Wunderground PWS Mod,2013-10-24 20:43:00,
2013-10-24 16:48:00,51.3,29.0,29.81,North,360,0.0,8.0,42,0.00,,,0.00,Wunderground PWS Mod,2013-10-24 20:48:00,
2013-10-24 16:54:00,50.8,29.6,29.81,West,271,1.0,8.0,44,0.00,,,0.00,Wunderground PWS Mod,2013-10-24 20:54:00,
2013-10-24 16:59:00,50.4,29.3,29.81,West,267,1.0,8.0,44,0.00,,,0.00,Wunderground PWS Mod,2013-10-24 20:59:00,
2013-10-24 17:05:00,50.2,29.7,29.81,WSW,242,0.0,8.0,45,0.00,,,0.00,Wunderground PWS Mod,2013-10-24 21:05:00,
2013-10-24 17:12:00,50.1,29.6,29.81,West,275,1.0,8.0,45,0.00,,,0.00,Wunderground PWS Mod,2013-10-24 21:12:00,
2013-10-24 17:18:00,50.0,29.5,29.81,WSW,253,1.0,8.0,45,0.00,,,0.00,Wunderground PWS Mod,2013-10-24 21:18:00,
2013-10-24 17:24:00,49.9,29.9,29.81,WSW,248,1.0,8.0,46,0.00,,,0.00,Wunderground PWS Mod,2013-10-24 21:24:00,
2013-10-24 17:30:00,49.7,30.3,29.81,WSW,248,0.0,8.0,47,0.00,,,0.00,Wunderground PWS Mod,2013-10-24 21:30:00,
2013-10-24 17:35:00,49.5,30.1,29.82,WSW,248,0.0,8.0,47,0.00,,,0.00,Wunderground PWS Mod,2013-10-24 21:35:00,
2013-10-24 17:40:00,49.2,30.3,29.82,WSW,248,0.0,8.0,48,0.00,,,0.00,Wunderground PWS Mod,2013-10-24 21:40:00,
2013-10-24 17:45:00,48.9,30.1,29.82,WSW,248,0.0,8.0,48,0.00,,,0.00,Wunderground PWS Mod,2013-10-24 21:45:00,
2013-10-24 17:50:00,48.6,30.8,29.82,WSW,248,0.0,8.0,50,0.00,,,0.00,Wunderground PWS Mod,2013-10-24 21:50:00,
2013-10-24 17:55:00,48.2,29.9,29.82,WSW,248,0.0,8.0,49,0.00,,,0.00,Wunderground PWS Mod,2013-10-24 21:55:00,
2013-10-24 18:01:00,47.9,30.1,29.82,WSW,248,0.0,8.0,50,0.00,,,0.00,Wunderground PWS Mod,2013-10-24 22:01:00,
2013-10-24 18:06:00,47.7,30.4,29.82,WSW,248,0.0,8.0,51,0.00,,,0.00,Wunderground PWS Mod,2013-10-24 22:06:00,
2013-10-24 18:12:00,47.4,30.2,29.83,WSW,248,0.0,8.0,51,0.00,,,0.00,Wunderground PWS Mod,2013-10-24 22:12:00,
2013-10-24 18:17:00,47.2,30.0,29.83,WSW,248,0.0,8.0,51,0.00,,,0.00,Wunderground PWS Mod,2013-10-24 22:17:00,
2013-10-24 18:22:00,47.0,30.3,29.83,WSW,248,0.0,8.0,52,0.00,,,0.00,Wunderground PWS Mod,2013-10-24 22:22:00,
2013-10-24 18:28:00,46.8,30.6,29.83,WSW,248,0.0,8.0,53,0.00,,,0.00,Wunderground PWS Mod,2013-10-24 22:28:00,
2013-10-24 18:33:00,46.5,30.3,29.84,WSW,248,0.0,8.0,53,0.00,,,0.00,Wunderground PWS Mod,2013-10-24 22:33:00,
2013-10-24 18:38:00,46.3,30.1,29.84,WSW,248,0.0,8.0,53,0.00,,,0.00,Wunderground PWS Mod,2013-10-24 22:38:00,
2013-10-24 18:44:00,46.1,30.4,29.84,WSW,248,0.0,8.0,54,0.00,,,0.00,Wunderground PWS Mod,2013-10-24 22:44:00,
2013-10-24 18:50:00,45.9,30.2,29.85,WSW,248,0.0,8.0,54,0.00,,,0.00,Wunderground PWS Mod,2013-10-24 22:50:00,
2013-10-24 18:55:00,45.7,30.0,29.85,WSW,248,0.0,8.0,54,0.00,,,0.00,Wunderground PWS Mod,2013-10-24 22:55:00,
2013-10-24 19:00:00,45.5,30.3,29.85,WSW,248,0.0,8.0,55,0.00,,,0.00,Wunderground PWS Mod,2013-10-24 23:00:00,
2013-10-24 19:05:00,45.4,30.2,29.85,WSW,252,0.0,8.0,55,0.00,,,0.00,Wunderground PWS Mod,2013-10-24 23:05:00,
2013-10-24 19:11:00,45.2,30.0,29.85,WSW,256,0.0,8.0,55,0.00,,,0.00,Wunderground PWS Mod,2013-10-24 23:11:00,
2013-10-24 19:16:00,45.0,30.2,29.85,WSW,257,0.0,8.0,56,0.00,,,0.00,Wunderground PWS Mod,2013-10-24 23:16:00,
2013-10-24 19:21:00,44.8,30.5,29.85,WSW,258,0.0,8.0,57,0.00,,,0.00,Wunderground PWS Mod,2013-10-24 23:21:00,
2013-10-24 19:26:00,44.7,30.8,29.85,West,259,0.0,8.0,58,0.00,,,0.00,Wunderground PWS Mod,2013-10-24 23:26:00,
2013-10-24 19:32:00,44.6,30.7,29.86,West,259,0.0,8.0,58,0.00,,,0.00,Wunderground PWS Mod,2013-10-24 23:32:00,
2013-10-24 19:37:00,44.5,30.6,29.86,West,259,0.0,8.0,58,0.00,,,0.00,Wunderground PWS Mod,2013-10-24 23:37:00,
2013-10-24 19:43:00,44.4,31.0,29.86,West,263,0.0,8.0,59,0.00,,,0.00,Wunderground PWS Mod,2013-10-24 23:43:00,
2013-10-24 19:48:00,44.3,30.9,29.86,West,273,0.0,8.0,59,0.00,,,0.00,Wunderground PWS Mod,2013-10-24 23:48:00,
2013-10-24 19:54:00,44.2,30.3,29.86,West,270,0.0,8.0,58,0.00,,,0.00,Wunderground PWS Mod,2013-10-24 23:54:00,
2013-10-24 19:59:00,44.2,30.8,29.86,West,270,0.0,8.0,59,0.00,,,0.00,Wunderground PWS Mod,2013-10-24 23:59:00,
2013-10-24 20:05:00,44.2,30.3,29.86,West,271,0.0,3.0,58,0.00,,,0.00,Wunderground PWS Mod,2013-10-25 00:05:00,
2013-10-24 20:10:00,44.1,30.3,29.86,West,271,0.0,3.0,58,0.00,,,0.00,Wunderground PWS Mod,2013-10-25 00:10:00,
2013-10-24 20:14:00,44.2,30.3,29.86,West,270,0.0,3.0,58,0.00,,,0.00,Wunderground PWS Mod,2013-10-25 00:14:00,
2013-10-24 20:15:00,44.1,30.7,29.86,West,270,0.0,3.0,59,0.00,,,0.00,Wunderground PWS Mod,2013-10-25 00:15:00,
2013-10-24 20:21:00,44.0,31.0,29.86,West,270,0.0,3.0,60,0.00,,,0.00,Wunderground PWS Mod,2013-10-25 00:21:00,
2013-10-24 20:26:00,43.8,30.8,29.87,West,270,0.0,3.0,60,0.00,,,0.00,Wunderground PWS Mod,2013-10-25 00:26:00,
2013-10-24 20:31:00,43.7,30.3,29.87,West,270,0.0,3.0,59,0.00,,,0.00,Wunderground PWS Mod,2013-10-25 00:31:00,
2013-10-24 20:36:00,43.6,30.6,29.87,West,270,0.0,3.0,60,0.00,,,0.00,Wunderground PWS Mod,2013-10-25 00:36:00,
2013-10-24 20:42:00,43.5,30.5,29.87,West,270,0.0,3.0,60,0.00,,,0.00,Wunderground PWS Mod,2013-10-25 00:42:00,
2013-10-24 20:47:00,43.4,30.4,29.87,West,270,0.0,3.0,60,0.00,,,0.00,Wunderground PWS Mod,2013-10-25 00:47:00,
2013-10-24 20:52:00,43.3,30.3,29.87,West,270,0.0,3.0,60,0.00,,,0.00,Wunderground PWS Mod,2013-10-25 00:52:00,
2013-10-24 20:57:00,43.2,30.6,29.87,West,270,0.0,3.0,61,0.00,,,0.00,Wunderground PWS Mod,2013-10-25 00:57:00,
2013-10-24 21:03:00,43.2,30.6,29.87,West,269,0.0,3.0,61,0.00,,,0.00,Wunderground PWS Mod,2013-10-25 01:03:00,
2013-10-24 21:08:00,43.1,30.6,29.87,West,269,0.0,3.0,61,0.00,,,0.00,Wunderground PWS Mod,2013-10-25 01:08:00,
2013-10-24 21:14:00,42.9,30.4,29.88,West,269,0.0,3.0,61,0.00,,,0.00,Wunderground PWS Mod,2013-10-25 01:14:00,
2013-10-24 21:20:00,42.9,30.4,29.88,West,269,0.0,3.0,61,0.00,,,0.00,Wunderground PWS Mod,2013-10-25 01:20:00,
2013-10-24 21:25:00,42.9,30.4,29.88,West,269,0.0,3.0,61,0.00,,,0.00,Wunderground PWS Mod,2013-10-25 01:25:00,
2013-10-24 21:31:00,43.0,30.5,29.88,West,269,0.0,3.0,61,0.00,,,0.00,Wunderground PWS Mod,2013-10-25 01:31:00,
2013-10-24 21:36:00,43.0,30.5,29.88,West,268,0.0,3.0,61,0.00,,,0.00,Wunderground PWS Mod,2013-10-25 01:36:00,
2013-10-24 21:41:00,43.0,30.5,29.88,West,267,0.0,3.0,61,0.00,,,0.00,Wunderground PWS Mod,2013-10-25 01:41:00,
2013-10-24 21:46:00,43.0,30.5,29.88,West,266,0.0,3.0,61,0.00,,,0.00,Wunderground PWS Mod,2013-10-25 01:46:00,
2013-10-24 21:52:00,43.0,30.5,29.88,WSW,257,0.0,3.0,61,0.00,,,0.00,Wunderground PWS Mod,2013-10-25 01:52:00,
2013-10-24 21:57:00,43.2,30.6,29.89,West,269,0.0,3.0,61,0.00,,,0.00,Wunderground PWS Mod,2013-10-25 01:57:00,
2013-10-24 22:02:00,43.3,30.7,29.89,West,269,0.0,3.0,61,0.00,,,0.00,Wunderground PWS Mod,2013-10-25 02:02:00,
2013-10-24 22:07:00,43.3,30.7,29.89,West,269,0.0,3.0,61,0.00,,,0.00,Wunderground PWS Mod,2013-10-25 02:07:00,
2013-10-24 22:14:00,43.2,30.6,29.89,NW,306,0.0,3.0,61,0.00,,,0.00,Wunderground PWS Mod,2013-10-25 02:14:00,
2013-10-24 22:19:00,43.1,30.6,29.89,WNW,302,0.0,3.0,61,0.00,,,0.00,Wunderground PWS Mod,2013-10-25 02:19:00,
2013-10-24 22:24:00,42.9,30.8,29.89,WNW,298,0.0,3.0,62,0.00,,,0.00,Wunderground PWS Mod,2013-10-25 02:24:00,
2013-10-24 22:30:00,42.8,30.7,29.89,WNW,296,0.0,3.0,62,0.00,,,0.00,Wunderground PWS Mod,2013-10-25 02:30:00,
2013-10-24 22:35:00,42.6,30.5,29.90,NW,311,0.0,3.0,62,0.00,,,0.00,Wunderground PWS Mod,2013-10-25 02:35:00,
2013-10-24 22:41:00,42.6,30.9,29.90,NW,309,0.0,3.0,63,0.00,,,0.00,Wunderground PWS Mod,2013-10-25 02:41:00,
2013-10-24 22:46:00,42.5,30.8,29.90,WNW,284,0.0,3.0,63,0.00,,,0.00,Wunderground PWS Mod,2013-10-25 02:46:00,
2013-10-24 22:51:00,42.3,30.6,29.90,WNW,284,0.0,3.0,63,0.00,,,0.00,Wunderground PWS Mod,2013-10-25 02:51:00,
2013-10-24 22:56:00,42.3,30.6,29.90,WNW,284,0.0,3.0,63,0.00,,,0.00,Wunderground PWS Mod,2013-10-25 02:56:00,
2013-10-24 23:02:00,42.2,30.5,29.90,WNW,284,0.0,3.0,63,0.00,,,0.00,Wunderground PWS Mod,2013-10-25 03:02:00,
2013-10-24 23:07:00,42.2,30.5,29.90,West,281,0.0,3.0,63,0.00,,,0.00,Wunderground PWS Mod,2013-10-25 03:07:00,
2013-10-24 23:12:00,42.2,30.5,29.90,WNW,282,0.0,3.0,63,0.00,,,0.00,Wunderground PWS Mod,2013-10-25 03:12:00,
2013-10-24 23:17:00,42.1,30.8,29.90,West,281,0.0,3.0,64,0.00,,,0.00,Wunderground PWS Mod,2013-10-25 03:17:00,
2013-10-24 23:22:00,41.9,30.6,29.90,West,281,0.0,3.0,64,0.00,,,0.00,Wunderground PWS Mod,2013-10-25 03:22:00,
2013-10-24 23:27:00,41.8,30.5,29.90,West,281,0.0,3.0,64,0.00,,,0.00,Wunderground PWS Mod,2013-10-25 03:27:00,
2013-10-24 23:34:00,41.6,30.3,29.90,West,281,0.0,3.0,64,0.00,,,0.00,Wunderground PWS Mod,2013-10-25 03:34:00,
2013-10-24 23:40:00,41.6,30.3,29.90,WNW,296,0.0,3.0,64,0.00,,,0.00,Wunderground PWS Mod,2013-10-25 03:40:00,
2013-10-24 23:45:00,41.6,30.3,29.90,West,261,0.0,3.0,64,0.00,,,0.00,Wunderground PWS Mod,2013-10-25 03:45:00,
2013-10-24 23:50:00,41.6,30.3,29.90,West,259,1.0,3.0,64,0.00,,,0.00,Wunderground PWS Mod,2013-10-25 03:50:00,
2013-10-24 23:55:00,41.6,30.3,29.90,West,263,1.0,3.0,64,0.00,,,0.00,Wunderground PWS Mod,2013-10-25 03:55:00,